createdAt,value
2019-02-23T00:01:08.570Z,97150.86
2019-02-23T00:03:39.553Z,97160.63
2019-02-23T00:06:06.894Z,97157.92
2019-02-23T00:08:34.236Z,97160.14
2019-02-23T00:11:01.593Z,97167.29
2019-02-23T00:13:29.062Z,97169.58
2019-02-23T00:15:56.413Z,97167.06
2019-02-23T00:18:23.774Z,97167.73
2019-02-23T00:20:51.115Z,97166.77
2019-02-23T00:23:18.453Z,97162.66
2019-02-23T00:25:46.221Z,97163.06
2019-02-23T00:28:13.522Z,97162.95
2019-02-23T00:30:40.887Z,97162.03
2019-02-23T00:33:08.286Z,97163.63
2019-02-23T00:35:35.613Z,97164.58
2019-02-23T00:38:03.290Z,97167.70
2019-02-23T00:40:30.733Z,97170.02
2019-02-23T00:42:58.075Z,97165.22
2019-02-23T00:45:25.409Z,97167.88
2019-02-23T00:47:52.808Z,97168.06
2019-02-23T00:50:20.129Z,97177.73
2019-02-23T00:52:47.457Z,97173.92
2019-02-23T00:55:14.853Z,97177.79
2019-02-23T00:57:42.193Z,97188.50
2019-02-23T01:00:11.033Z,97190.64
2019-02-23T01:02:38.433Z,97186.61
2019-02-23T01:05:05.893Z,97188.95
2019-02-23T01:07:33.325Z,97181.69
2019-02-23T01:10:00.818Z,97178.88
2019-02-23T01:12:28.197Z,97176.69
2019-02-23T01:14:55.522Z,97178.28
2019-02-23T01:17:22.881Z,97168.70
2019-02-23T01:19:50.210Z,97167.44
2019-02-23T01:22:17.573Z,97163.58
2019-02-23T01:24:45.380Z,97161.03
2019-02-23T01:27:12.697Z,97165.51
2019-02-23T01:29:40.060Z,97168.17
2019-02-23T01:32:08.102Z,97169.70
2019-02-23T01:34:35.431Z,97171.47
2019-02-23T01:37:02.739Z,97172.84
2019-02-23T01:39:30.813Z,97173.94
2019-02-23T01:41:58.148Z,97178.50
2019-02-23T01:44:25.507Z,97180.31
2019-02-23T01:46:52.824Z,97178.88
2019-02-23T01:49:20.647Z,97184.17
2019-02-23T01:51:47.969Z,97188.95
2019-02-23T01:54:15.328Z,97187.69
2019-02-23T01:56:42.655Z,97183.95
2019-02-23T01:59:09.960Z,97188.69
2019-02-23T02:01:37.310Z,97194.42
2019-02-23T02:04:04.716Z,97191.83
2019-02-23T02:06:33.628Z,97189.96
2019-02-23T02:09:01.230Z,97195.48
2019-02-23T02:11:28.527Z,97191.94
2019-02-23T02:13:55.886Z,97188.16
2019-02-23T02:16:23.400Z,97185.77
2019-02-23T02:18:50.761Z,97190.75
2019-02-23T02:21:18.074Z,97186.08
2019-02-23T02:23:45.436Z,97190.47
2019-02-23T02:26:12.747Z,97196.20
2019-02-23T02:28:40.073Z,97194.46
2019-02-23T02:31:07.415Z,97201.76
2019-02-23T02:33:57.162Z,97202.59
2019-02-23T02:36:24.516Z,97202.09
2019-02-23T02:38:51.849Z,97208.84
2019-02-23T02:41:19.134Z,97205.43
2019-02-23T02:43:46.513Z,97201.55
2019-02-23T02:46:13.851Z,97202.40
2019-02-23T02:48:41.181Z,97204.20
2019-02-23T02:51:08.556Z,97214.19
2019-02-23T02:53:35.842Z,97203.41
2019-02-23T02:56:03.254Z,97197.83
2019-02-23T02:58:30.621Z,97202.19
2019-02-23T03:00:57.936Z,97198.52
2019-02-23T03:03:25.260Z,97199.34
2019-02-23T03:05:52.637Z,97201.39
2019-02-23T03:08:19.937Z,97201.39
2019-02-23T03:10:47.220Z,97198.93
2019-02-23T03:13:14.594Z,97204.20
2019-02-23T03:15:41.894Z,97201.14
2019-02-23T03:18:09.189Z,97192.36
2019-02-23T03:20:37.039Z,97196.34
2019-02-23T03:23:04.596Z,97189.45
2019-02-23T03:25:31.916Z,97188.57
2019-02-23T03:27:59.281Z,97193.81
2019-02-23T03:30:26.762Z,97195.55
2019-02-23T03:32:54.460Z,97195.36
2019-02-23T03:35:22.098Z,97205.43
2019-02-23T03:37:49.703Z,97202.81
2019-02-23T03:40:17.223Z,97208.02
2019-02-23T03:42:44.791Z,97209.38
2019-02-23T03:45:12.600Z,97210.26
2019-02-23T03:47:40.220Z,97209.22
2019-02-23T03:50:07.607Z,97204.55
2019-02-23T03:52:37.028Z,97210.20
2019-02-23T03:55:04.703Z,97217.02
2019-02-23T03:57:32.064Z,97214.02
2019-02-23T03:59:59.380Z,97225.67
2019-02-23T04:02:26.700Z,97223.84
2019-02-23T04:04:54.074Z,97227.82
2019-02-23T04:07:21.389Z,97231.41
2019-02-23T04:09:48.690Z,97233.47
2019-02-23T04:12:16.060Z,97231.77
2019-02-23T04:14:43.380Z,97237.41
2019-02-23T04:17:10.705Z,97240.47
2019-02-23T04:19:38.066Z,97239.94
2019-02-23T04:22:05.357Z,97237.00
2019-02-23T04:24:32.695Z,97237.03
2019-02-23T04:27:00.041Z,97235.82
2019-02-23T04:29:27.409Z,97239.62
2019-02-23T04:31:54.747Z,97237.03
2019-02-23T04:34:22.129Z,97239.20
2019-02-23T04:36:49.434Z,97239.59
2019-02-23T04:39:16.769Z,97239.53
2019-02-23T04:41:44.131Z,97236.59
2019-02-23T04:44:11.461Z,97232.73
2019-02-23T04:46:39.200Z,97236.23
2019-02-23T04:49:06.604Z,97229.70
2019-02-23T04:51:34.378Z,97228.05
2019-02-23T04:54:01.732Z,97234.03
2019-02-23T04:56:29.044Z,97228.47
2019-02-23T04:58:56.468Z,97218.05
2019-02-23T05:01:23.780Z,97216.88
2019-02-23T05:03:51.162Z,97219.44
2019-02-23T05:06:18.483Z,97215.64
2019-02-23T05:08:45.903Z,97215.64
2019-02-23T05:11:13.268Z,97216.00
2019-02-23T05:13:40.578Z,97217.34
2019-02-23T05:16:07.894Z,97220.23
2019-02-23T05:18:35.265Z,97218.17
2019-02-23T05:21:02.581Z,97214.31
2019-02-23T05:23:29.875Z,97211.70
2019-02-23T05:25:57.275Z,97211.29
2019-02-23T05:28:24.596Z,97208.27
2019-02-23T05:30:51.892Z,97205.20
2019-02-23T05:33:19.220Z,97204.81
2019-02-23T05:35:46.535Z,97215.73
2019-02-23T05:38:13.849Z,97210.14
2019-02-23T05:40:41.181Z,97204.58
2019-02-23T05:43:08.528Z,97207.11
2019-02-23T05:45:35.824Z,97205.67
2019-02-23T05:48:03.183Z,97206.67
2019-02-23T05:50:30.531Z,97206.23
2019-02-23T05:52:58.088Z,97199.32
2019-02-23T05:55:25.459Z,97201.02
2019-02-23T05:57:52.762Z,97195.41
2019-02-23T06:00:20.076Z,97195.08
2019-02-23T06:02:47.418Z,97195.11
2019-02-23T06:05:14.752Z,97186.05
2019-02-23T06:07:42.040Z,97186.50
2019-02-23T06:10:10.083Z,97196.55
2019-02-23T06:12:37.414Z,97195.69
2019-02-23T06:15:06.970Z,97197.43
2019-02-23T06:17:34.342Z,97199.60
2019-02-23T06:20:01.642Z,97205.19
2019-02-23T06:22:28.928Z,97204.39
2019-02-23T06:24:56.290Z,97199.66
2019-02-23T06:27:23.656Z,97204.45
2019-02-23T06:29:50.938Z,97209.06
2019-02-23T06:32:18.312Z,97212.09
2019-02-23T06:34:45.624Z,97220.69
2019-02-23T06:37:12.934Z,97215.55
2019-02-23T06:39:40.284Z,97214.08
2019-02-23T06:42:07.613Z,97222.75
2019-02-23T06:44:34.931Z,97222.64
2019-02-23T06:47:02.290Z,97224.90
2019-02-23T06:49:29.663Z,97227.08
2019-02-23T06:52:04.260Z,97226.52
2019-02-23T06:54:27.712Z,97228.17
2019-02-23T06:56:55.034Z,97230.81
2019-02-23T06:59:22.364Z,97231.12
2019-02-23T07:01:49.722Z,97230.79
2019-02-23T07:04:17.533Z,97226.52
2019-02-23T07:06:44.849Z,97221.47
2019-02-23T07:09:12.195Z,97224.64
2019-02-23T07:11:39.800Z,97224.64
2019-02-23T07:14:07.122Z,97231.88
2019-02-23T07:16:34.492Z,97229.94
2019-02-23T07:19:01.830Z,97234.70
2019-02-23T07:21:29.139Z,97231.25
2019-02-23T07:23:56.499Z,97229.41
2019-02-23T07:26:23.832Z,97228.41
2019-02-23T07:28:51.168Z,97236.38
2019-02-23T07:31:18.521Z,97236.38
2019-02-23T07:33:45.813Z,97244.72
2019-02-23T07:36:13.137Z,97255.54
2019-02-23T07:38:40.502Z,97243.95
2019-02-23T07:41:07.882Z,97254.68
2019-02-23T07:43:35.184Z,97246.78
2019-02-23T07:46:02.640Z,97242.91
2019-02-23T07:48:29.970Z,97230.88
2019-02-23T07:50:57.326Z,97227.73
2019-02-23T07:53:24.690Z,97228.28
2019-02-23T07:55:52.017Z,97224.20
2019-02-23T07:58:19.346Z,97228.11
2019-02-23T08:00:47.044Z,97226.87
2019-02-23T08:03:14.526Z,97229.05
2019-02-23T08:05:41.876Z,97225.53
2019-02-23T08:08:09.286Z,97235.82
2019-02-23T08:10:36.634Z,97237.14
2019-02-23T08:13:04.923Z,97236.23
2019-02-23T08:15:32.333Z,97233.94
2019-02-23T08:17:59.648Z,97239.62
2019-02-23T08:20:27.197Z,97246.97
2019-02-23T08:22:54.622Z,97230.02
2019-02-23T08:25:21.976Z,97238.59
2019-02-23T08:27:49.357Z,97237.44
2019-02-23T08:30:16.763Z,97238.65
2019-02-23T08:32:44.073Z,97228.88
2019-02-23T08:35:11.402Z,97228.67
2019-02-23T08:37:39.038Z,97229.91
2019-02-23T08:40:07.512Z,97236.20
2019-02-23T08:42:35.116Z,97238.44
2019-02-23T08:45:02.844Z,97238.77
2019-02-23T08:47:30.442Z,97236.70
2019-02-23T08:49:58.006Z,97254.16
2019-02-23T08:52:25.407Z,97265.36
2019-02-23T08:54:52.791Z,97256.30
2019-02-23T08:57:20.148Z,97258.59
2019-02-23T08:59:47.507Z,97255.48
2019-02-23T09:02:14.847Z,97262.83
2019-02-23T09:04:42.159Z,97260.27
2019-02-23T09:07:09.549Z,97259.89
2019-02-23T09:09:36.868Z,97258.70
2019-02-23T09:12:04.186Z,97256.03
2019-02-23T09:14:31.561Z,97260.80
2019-02-23T09:16:59.002Z,97259.33
2019-02-23T09:19:26.349Z,97258.86
2019-02-23T09:21:53.729Z,97255.23
2019-02-23T09:24:21.055Z,97254.80
2019-02-23T09:26:48.440Z,97258.45
2019-02-23T09:29:15.854Z,97260.53
2019-02-23T09:31:43.198Z,97254.95
2019-02-23T09:34:10.554Z,97249.17
2019-02-23T09:36:37.954Z,97249.11
2019-02-23T09:39:05.498Z,97244.91
2019-02-23T09:41:32.845Z,97239.52
2019-02-23T09:44:00.231Z,97229.88
2019-02-23T09:46:27.564Z,97230.45
2019-02-23T09:48:56.414Z,97235.75
2019-02-23T09:51:24.174Z,97231.27
2019-02-23T09:53:52.125Z,97236.73
2019-02-23T09:56:19.705Z,97238.72
2019-02-23T09:58:47.487Z,97230.47
2019-02-23T10:01:14.849Z,97238.14
2019-02-23T10:03:42.297Z,97237.48
2019-02-23T10:06:09.710Z,97236.43
2019-02-23T10:08:37.064Z,97223.23
2019-02-23T10:11:04.375Z,97225.31
2019-02-23T10:13:31.793Z,97214.17
2019-02-23T10:15:59.124Z,97227.25
2019-02-23T10:18:26.481Z,97211.44
2019-02-23T10:20:53.881Z,97208.53
2019-02-23T10:23:22.366Z,97207.25
2019-02-23T10:25:50.236Z,97190.42
2019-02-23T10:28:17.627Z,97197.36
2019-02-23T10:30:44.987Z,97195.53
2019-02-23T10:33:12.356Z,97192.24
2019-02-23T10:35:40.152Z,97193.17
2019-02-23T10:38:07.514Z,97193.83
2019-02-23T10:40:35.302Z,97207.86
2019-02-23T10:43:02.841Z,97205.22
2019-02-23T10:45:30.328Z,97205.14
2019-02-23T10:47:57.759Z,97199.55
2019-02-23T10:50:25.120Z,97203.67
2019-02-23T10:52:52.618Z,97184.43
2019-02-23T10:55:19.995Z,97184.72
2019-02-23T10:57:47.452Z,97175.00
2019-02-23T11:00:18.097Z,97166.54
2019-02-23T11:02:45.752Z,97171.86
2019-02-23T11:05:13.253Z,97168.65
2019-02-23T11:07:40.599Z,97172.75
2019-02-23T11:10:08.112Z,97171.03
2019-02-23T11:12:35.527Z,97175.34
2019-02-23T11:15:02.853Z,97171.94
2019-02-23T11:17:30.174Z,97180.05
2019-02-23T11:19:57.634Z,97177.66
2019-02-23T11:22:25.075Z,97183.22
2019-02-23T11:24:52.419Z,97190.20
2019-02-23T11:27:19.894Z,97191.02
2019-02-23T11:29:49.352Z,97192.81
2019-02-23T11:32:16.790Z,97197.74
2019-02-23T11:34:44.235Z,97196.48
2019-02-23T11:37:11.634Z,97196.34
2019-02-23T11:39:39.024Z,97182.80
2019-02-23T11:42:06.435Z,97183.00
2019-02-23T11:44:33.829Z,97180.89
2019-02-23T11:47:01.218Z,97190.05
2019-02-23T11:49:28.695Z,97188.19
2019-02-23T11:51:56.155Z,97180.90
2019-02-23T11:54:23.482Z,97177.60
2019-02-23T11:56:50.913Z,97180.50
2019-02-23T11:59:18.320Z,97184.35
2019-02-23T12:01:45.718Z,97175.34
2019-02-23T12:04:13.227Z,97170.05
2019-02-23T12:06:40.756Z,97176.20
2019-02-23T12:09:08.465Z,97166.34
2019-02-23T12:11:36.228Z,97161.13
2019-02-23T12:14:03.890Z,97154.79
2019-02-23T12:16:31.322Z,97156.78
2019-02-23T12:18:58.810Z,97155.23
2019-02-23T12:21:26.275Z,97141.02
2019-02-23T12:23:53.693Z,97130.52
2019-02-23T12:26:21.165Z,97132.17
2019-02-23T12:28:48.573Z,97128.91
2019-02-23T12:31:16.151Z,97134.20
2019-02-23T12:33:43.612Z,97128.73
2019-02-23T12:36:11.062Z,97129.73
2019-02-23T12:38:38.456Z,97124.84
2019-02-23T12:41:06.326Z,97120.44
2019-02-23T12:43:33.807Z,97120.66
2019-02-23T12:46:01.478Z,97126.20
2019-02-23T12:48:29.037Z,97123.80
2019-02-23T12:50:56.711Z,97112.73
2019-02-23T12:53:24.513Z,97109.97
2019-02-23T12:55:52.073Z,97112.18
2019-02-23T12:58:19.783Z,97107.08
2019-02-23T13:00:47.749Z,97104.49
2019-02-23T13:03:15.337Z,97099.23
2019-02-23T13:05:43.089Z,97097.19
2019-02-23T13:08:10.824Z,97091.93
2019-02-23T13:10:38.743Z,97090.91
2019-02-23T13:13:45.444Z,97089.78
2019-02-23T13:16:37.629Z,97080.55
2019-02-23T13:19:41.472Z,97066.49
2019-02-23T13:23:13.404Z,97065.34
2019-02-23T13:26:10.385Z,97063.28
2019-02-23T13:29:11.120Z,97060.52
2019-02-23T13:32:22.660Z,97057.48
2019-02-23T13:35:05.946Z,97048.60
2019-02-23T13:38:16.745Z,97051.99
2019-02-23T13:41:08.033Z,97053.19
2019-02-23T13:44:38.389Z,97046.84
2019-02-23T13:47:32.001Z,97048.34
2019-02-23T13:50:44.003Z,97043.70
2019-02-23T13:53:51.716Z,97045.63
2019-02-23T13:56:42.969Z,97040.88
2019-02-23T13:59:32.213Z,97050.50
2019-02-23T14:02:53.672Z,97039.15
2019-02-23T14:05:38.822Z,97035.64
2019-02-23T14:09:00.158Z,97025.92
2019-02-23T14:12:17.401Z,97015.72
2019-02-23T14:15:29.206Z,97018.08
2019-02-23T14:18:16.759Z,97023.48
2019-02-23T14:21:11.235Z,97016.38
2019-02-23T14:24:34.956Z,97018.13
2019-02-23T14:27:40.204Z,97016.16
2019-02-23T14:31:01.112Z,97017.83
2019-02-23T14:34:15.705Z,97012.77
2019-02-23T14:37:27.041Z,97013.03
2019-02-23T14:40:30.996Z,97011.28
2019-02-23T14:43:33.821Z,96999.13
2019-02-23T14:46:51.691Z,97008.61
2019-02-23T14:50:08.616Z,96998.80
2019-02-23T14:53:09.054Z,96994.61
2019-02-23T14:56:08.432Z,96984.11
2019-02-23T14:59:11.662Z,96989.69
2019-02-23T15:02:07.556Z,96988.38
2019-02-23T15:05:19.968Z,96990.78
2019-02-23T15:08:28.075Z,96996.12
2019-02-23T15:11:46.674Z,96991.65
2019-02-23T15:14:55.031Z,96980.33
2019-02-23T15:17:59.094Z,96987.16
2019-02-23T15:21:13.497Z,96989.59
2019-02-23T15:24:21.353Z,96980.19
2019-02-23T15:27:17.510Z,96988.70
2019-02-23T15:30:29.651Z,96986.29
2019-02-23T15:33:19.767Z,96984.97
2019-02-23T15:36:27.597Z,96987.64
2019-02-23T15:39:23.197Z,96984.03
2019-02-23T15:42:50.414Z,96979.18
2019-02-23T15:45:55.099Z,96974.96
2019-02-23T15:48:39.767Z,96985.41
2019-02-23T15:51:07.687Z,96980.83
2019-02-23T15:53:35.628Z,96983.92
2019-02-23T15:56:04.371Z,96981.23
2019-02-23T15:58:32.330Z,96985.02
2019-02-23T16:01:00.227Z,96977.99
2019-02-23T16:03:28.129Z,96974.78
2019-02-23T16:05:56.064Z,96971.90
2019-02-23T16:08:23.921Z,96972.28
2019-02-23T16:10:51.691Z,96973.41
2019-02-23T16:13:19.511Z,96975.48
2019-02-23T16:15:47.510Z,96984.49
2019-02-23T16:18:15.315Z,96983.70
2019-02-23T16:20:43.450Z,96985.58
2019-02-23T16:23:11.878Z,96988.50
2019-02-23T16:25:39.697Z,96992.72
2019-02-23T16:28:07.639Z,96989.42
2019-02-23T16:30:35.563Z,96996.42
2019-02-23T16:33:03.457Z,97002.47
2019-02-23T16:35:31.398Z,97002.67
2019-02-23T16:37:59.333Z,97010.84
2019-02-23T16:40:27.258Z,97006.88
2019-02-23T16:42:57.287Z,97010.50
2019-02-23T16:45:25.217Z,97016.35
2019-02-23T16:47:53.120Z,97020.83
2019-02-23T16:50:21.074Z,97017.22
2019-02-23T16:52:48.988Z,97026.19
2019-02-23T16:55:17.031Z,97034.34
2019-02-23T16:57:44.940Z,97047.11
2019-02-23T17:00:12.832Z,97046.97
2019-02-23T17:02:40.732Z,97053.59
2019-02-23T17:05:08.943Z,97047.69
2019-02-23T17:07:36.742Z,97055.23
2019-02-23T17:10:05.042Z,97050.51
2019-02-23T17:12:33.030Z,97062.16
2019-02-23T17:15:00.938Z,97070.73
2019-02-23T17:17:28.858Z,97069.06
2019-02-23T17:19:56.842Z,97074.45
2019-02-23T17:22:25.980Z,97075.74
2019-02-23T17:24:53.751Z,97082.27
2019-02-23T17:27:21.913Z,97090.24
2019-02-23T17:29:49.894Z,97089.50
2019-02-23T17:32:17.919Z,97088.91
2019-02-23T17:34:46.035Z,97089.39
2019-02-23T17:37:13.931Z,97095.53
2019-02-23T17:39:41.871Z,97099.88
2019-02-23T17:42:09.772Z,97107.23
2019-02-23T17:44:37.927Z,97112.16
2019-02-23T17:47:06.119Z,97115.45
2019-02-23T17:49:34.175Z,97100.47
2019-02-23T17:52:02.001Z,97118.23
2019-02-23T17:54:30.113Z,97117.23
2019-02-23T17:56:58.110Z,97118.64
2019-02-23T17:59:26.170Z,97132.91
2019-02-23T18:01:54.230Z,97136.59
2019-02-23T18:04:22.224Z,97133.36
2019-02-23T18:06:50.145Z,97132.88
2019-02-23T18:09:18.108Z,97134.52
2019-02-23T18:11:46.206Z,97132.84
2019-02-23T18:14:15.289Z,97135.94
2019-02-23T18:16:43.229Z,97132.94
2019-02-23T18:19:11.630Z,97146.36
2019-02-23T18:21:39.560Z,97145.67
2019-02-23T18:24:08.152Z,97142.64
2019-02-23T18:26:36.192Z,97133.64
2019-02-23T18:29:04.080Z,97141.21
2019-02-23T18:31:32.401Z,97149.33
2019-02-23T18:34:00.652Z,97147.53
2019-02-23T18:36:28.910Z,97153.20
2019-02-23T18:38:56.870Z,97164.17
2019-02-23T18:41:24.867Z,97159.88
2019-02-23T18:43:53.300Z,97160.52
2019-02-23T18:46:21.137Z,97160.94
2019-02-23T18:48:49.259Z,97165.17
2019-02-23T18:51:17.233Z,97158.13
2019-02-23T18:53:44.994Z,97153.34
2019-02-23T18:56:13.044Z,97160.80
2019-02-23T18:58:40.858Z,97168.14
2019-02-23T19:01:09.181Z,97161.27
2019-02-23T19:03:37.055Z,97159.23
2019-02-23T19:06:04.963Z,97163.05
2019-02-23T19:08:34.104Z,97165.14
2019-02-23T19:11:02.071Z,97169.66
2019-02-23T19:13:29.898Z,97169.08
2019-02-23T19:15:57.812Z,97177.32
2019-02-23T19:18:27.329Z,97175.67
2019-02-23T19:20:55.271Z,97176.33
2019-02-23T19:23:23.220Z,97181.79
2019-02-23T19:25:52.258Z,97188.44
2019-02-23T19:28:20.215Z,97186.52
2019-02-23T19:30:50.638Z,97183.50
2019-02-23T19:33:18.629Z,97195.25
2019-02-23T19:35:46.567Z,97180.11
2019-02-23T19:38:14.505Z,97186.78
2019-02-23T19:40:42.320Z,97184.12
2019-02-23T19:43:10.272Z,97187.68
2019-02-23T19:45:38.547Z,97182.92
2019-02-23T19:48:06.540Z,97187.75
2019-02-23T19:50:40.841Z,97181.73
2019-02-23T19:53:10.785Z,97183.11
2019-02-23T19:55:38.746Z,97181.92
2019-02-23T19:58:06.956Z,97187.87
2019-02-23T20:00:40.496Z,97184.92
2019-02-23T20:03:09.829Z,97191.34
2019-02-23T20:05:38.242Z,97193.46
2019-02-23T20:08:06.466Z,97191.88
2019-02-23T20:10:34.359Z,97193.41
2019-02-23T20:13:03.773Z,97202.45
2019-02-23T20:15:34.019Z,97200.76
2019-02-23T20:18:02.264Z,97208.53
2019-02-23T20:20:30.330Z,97205.64
2019-02-23T20:22:58.444Z,97216.01
2019-02-23T20:25:26.387Z,97218.70
2019-02-23T20:27:54.535Z,97219.98
2019-02-23T20:30:22.757Z,97219.16
2019-02-23T20:32:50.690Z,97217.86
2019-02-23T20:35:18.642Z,97220.13
2019-02-23T20:37:48.314Z,97214.51
2019-02-23T20:40:17.561Z,97220.13
2019-02-23T20:42:45.754Z,97220.92
2019-02-23T20:45:13.764Z,97229.47
2019-02-23T20:47:41.700Z,97234.26
2019-02-23T20:50:09.813Z,97219.84
2019-02-23T20:52:38.255Z,97219.84
2019-02-23T20:55:06.409Z,97224.94
2019-02-23T20:57:34.329Z,97223.08
2019-02-23T21:00:03.690Z,97226.84
2019-02-23T21:02:32.853Z,97231.63
2019-02-23T21:05:00.885Z,97231.63
2019-02-23T21:07:28.863Z,97229.20
2019-02-23T21:09:56.815Z,97233.87
2019-02-23T21:12:24.835Z,97241.37
2019-02-23T21:14:52.837Z,97235.13
2019-02-23T21:17:20.800Z,97242.66
2019-02-23T21:19:48.737Z,97242.64
2019-02-23T21:22:16.646Z,97245.67
2019-02-23T21:24:44.476Z,97237.30
2019-02-23T21:27:13.244Z,97246.92
2019-02-23T21:29:41.392Z,97236.47
2019-02-23T21:32:12.263Z,97235.18
2019-02-23T21:34:42.225Z,97233.91
2019-02-23T21:37:10.183Z,97230.52
2019-02-23T21:39:38.060Z,97225.67
2019-02-23T21:42:05.957Z,97234.33
2019-02-23T21:44:33.894Z,97234.59
2019-02-23T21:47:01.659Z,97243.63
2019-02-23T21:49:29.529Z,97242.64
2019-02-23T21:51:57.435Z,97240.89
2019-02-23T21:54:25.122Z,97249.84
2019-02-23T21:56:52.979Z,97250.72
2019-02-23T21:59:20.850Z,97254.86
2019-02-23T22:01:48.733Z,97263.39
2019-02-23T22:04:16.373Z,97255.46
2019-02-23T22:06:44.104Z,97251.55
2019-02-23T22:09:11.761Z,97268.05
2019-02-23T22:11:39.398Z,97266.31
2019-02-23T22:14:07.012Z,97252.62
2019-02-23T22:16:34.789Z,97252.62
2019-02-23T22:19:03.157Z,97256.86
2019-02-23T22:21:31.068Z,97267.70
2019-02-23T22:23:58.810Z,97268.04
2019-02-23T22:26:26.394Z,97267.61
2019-02-23T22:28:54.055Z,97273.28
2019-02-23T22:31:22.038Z,97270.37
2019-02-23T22:33:49.747Z,97269.53
2019-02-23T22:36:17.807Z,97258.75
2019-02-23T22:38:45.346Z,97260.88
2019-02-23T22:41:14.378Z,97260.88
2019-02-23T22:43:41.988Z,97260.89
2019-02-23T22:46:09.403Z,97258.30
2019-02-23T22:48:36.820Z,97249.75
2019-02-23T22:51:04.262Z,97251.39
2019-02-23T22:53:31.696Z,97268.20
2019-02-23T22:55:59.076Z,97265.25
2019-02-23T22:58:26.551Z,97266.90
2019-02-23T23:01:05.203Z,97274.66
2019-02-23T23:03:32.570Z,97287.11
2019-02-23T23:05:59.937Z,97287.16
2019-02-23T23:08:27.336Z,97282.44
2019-02-23T23:10:54.754Z,97290.13
2019-02-23T23:13:22.105Z,97299.52
2019-02-23T23:15:49.455Z,97299.19
2019-02-23T23:18:16.872Z,97292.30
2019-02-23T23:20:44.270Z,97290.14
2019-02-23T23:23:11.617Z,97285.38
2019-02-23T23:25:39.104Z,97282.39
2019-02-23T23:28:06.453Z,97290.53
2019-02-23T23:30:33.838Z,97280.22
2019-02-23T23:33:01.337Z,97280.22
2019-02-23T23:35:29.092Z,97284.42
2019-02-23T23:37:56.738Z,97292.97
2019-02-23T23:40:24.446Z,97290.19
2019-02-23T23:42:57.989Z,97285.06
2019-02-23T23:45:21.076Z,97293.15
2019-02-23T23:47:48.477Z,97294.77
2019-02-23T23:50:15.815Z,97294.97
2019-02-23T23:52:43.251Z,97292.38
2019-02-23T23:55:11.642Z,97292.38
2019-02-23T23:57:39.128Z,97295.69
